createdAt,value
2022-10-05T00:00:56.247Z,100161.48
2022-10-05T00:03:37.247Z,100161.68
2022-10-05T00:06:05.599Z,100161.83
2022-10-05T00:08:35.006Z,100161.44
2022-10-05T00:11:02.869Z,100169.34
2022-10-05T00:13:31.556Z,100169.25
2022-10-05T00:16:05.108Z,100169.14
2022-10-05T00:18:33.130Z,100158.40
2022-10-05T00:21:01.103Z,100158.25
2022-10-05T00:23:32.237Z,100151.88
2022-10-05T00:26:11.722Z,100149.63
2022-10-05T00:28:41.078Z,100147.89
2022-10-05T00:31:17.931Z,100139.13
2022-10-05T00:33:46.545Z,100139.16
2022-10-05T00:36:14.759Z,100138.48
2022-10-05T00:38:43.088Z,100141.93
2022-10-05T00:41:30.411Z,100143.27
2022-10-05T00:44:04.130Z,100142.84
2022-10-05T00:46:44.558Z,100143.30
2022-10-05T00:49:35.996Z,100142.51
2022-10-05T00:52:20.556Z,100144.85
2022-10-05T00:55:11.870Z,100150.67
2022-10-05T00:57:51.308Z,100152.90
2022-10-05T01:00:23.271Z,100154.17
2022-10-05T01:03:09.671Z,100154.17
2022-10-05T01:05:51.771Z,100152.27
2022-10-05T01:08:25.781Z,100158.15
2022-10-05T01:11:10.544Z,100156.39
2022-10-05T01:13:51.729Z,100161.80
2022-10-05T01:16:29.900Z,100164.05
2022-10-05T01:18:58.421Z,100166.34
2022-10-05T01:21:27.302Z,100165.96
2022-10-05T01:24:19.643Z,100164.67
2022-10-05T01:26:56.930Z,100159.08
2022-10-05T01:29:30.737Z,100166.25
2022-10-05T01:32:37.105Z,100168.34
2022-10-05T01:35:40.510Z,100172.30
2022-10-05T01:38:17.499Z,100170.89
2022-10-05T01:40:48.220Z,100174.96
2022-10-05T01:43:25.114Z,100171.48
2022-10-05T01:46:07.383Z,100170.36
2022-10-05T01:48:47.351Z,100163.75
2022-10-05T01:51:15.221Z,100154.75
2022-10-05T01:53:57.216Z,100151.01
2022-10-05T01:56:37.474Z,100140.23
2022-10-05T01:59:16.793Z,100139.80
2022-10-05T02:02:09.209Z,100139.73
2022-10-05T02:07:31.213Z,100141.35
2022-10-05T02:10:03.262Z,100137.84
2022-10-05T02:12:33.282Z,100135.54
2022-10-05T02:15:08.429Z,100148.90
2022-10-05T02:17:38.930Z,100149.61
2022-10-05T02:20:10.547Z,100143.55
2022-10-05T02:22:41.846Z,100139.69
2022-10-05T02:25:13.031Z,100140.60
2022-10-05T02:28:04.345Z,100138.83
2022-10-05T02:30:34.532Z,100144.41
2022-10-05T02:33:18.451Z,100141.67
2022-10-05T02:35:46.851Z,100141.55
2022-10-05T02:38:20.424Z,100140.69
2022-10-05T02:40:49.446Z,100132.65
2022-10-05T02:43:39.121Z,100128.77
2022-10-05T02:46:17.186Z,100129.70
2022-10-05T02:48:51.238Z,100131.65
2022-10-05T02:51:19.516Z,100131.41
2022-10-05T02:54:11.040Z,100133.14
2022-10-05T02:56:39.005Z,100133.84
2022-10-05T02:59:09.637Z,100141.39
2022-10-05T03:01:50.754Z,100147.73
2022-10-05T03:04:32.198Z,100143.27
2022-10-05T03:07:33.141Z,100133.30
2022-10-05T03:10:20.361Z,100124.39
2022-10-05T03:12:53.962Z,100121.29
2022-10-05T03:15:26.235Z,100123.56
2022-10-05T03:18:03.518Z,100127.79
2022-10-05T03:20:40.703Z,100127.80
2022-10-05T03:23:13.486Z,100137.91
2022-10-05T03:25:47.599Z,100138.21
2022-10-05T03:28:26.497Z,100136.65
2022-10-05T03:30:55.013Z,100137.48
2022-10-05T03:33:30.961Z,100133.19
2022-10-05T03:35:59.034Z,100127.27
2022-10-05T03:38:45.433Z,100128.82
2022-10-05T03:41:21.905Z,100130.23
2022-10-05T03:43:49.871Z,100125.91
2022-10-05T03:46:27.059Z,100126.05
2022-10-05T03:48:58.322Z,100126.33
2022-10-05T03:51:35.281Z,100125.37
2022-10-05T03:54:06.425Z,100127.31
2022-10-05T03:56:44.415Z,100128.84
2022-10-05T03:59:22.847Z,100129.52
2022-10-05T04:01:59.170Z,100124.64
2022-10-05T04:04:31.478Z,100125.34
2022-10-05T04:07:00.369Z,100125.30
2022-10-05T04:09:34.973Z,100119.04
2022-10-05T04:12:10.036Z,100121.83
2022-10-05T04:14:41.789Z,100120.48
2022-10-05T04:17:12.725Z,100111.56
2022-10-05T04:19:44.380Z,100103.39
2022-10-05T04:22:16.036Z,100111.92
2022-10-05T04:24:47.792Z,100110.27
2022-10-05T04:27:18.116Z,100107.84
2022-10-05T04:29:49.981Z,100099.35
2022-10-05T04:32:29.935Z,100097.79
2022-10-05T04:35:05.473Z,100099.55
2022-10-05T04:37:33.544Z,100098.95
2022-10-05T04:40:19.741Z,100104.88
2022-10-05T04:43:03.276Z,100099.49
2022-10-05T04:45:45.478Z,100106.40
2022-10-05T04:48:29.728Z,100115.78
2022-10-05T04:51:03.739Z,100105.24
2022-10-05T04:53:36.316Z,100110.05
2022-10-05T04:56:10.833Z,100109.84
2022-10-05T04:58:57.341Z,100104.58
2022-10-05T05:01:44.459Z,100111.09
2022-10-05T05:04:21.644Z,100124.31
2022-10-05T05:06:57.089Z,100129.48
2022-10-05T05:09:25.774Z,100127.43
2022-10-05T05:11:53.847Z,100124.13
2022-10-05T05:14:40.657Z,100131.92
2022-10-05T05:17:14.872Z,100131.36
2022-10-05T05:19:52.775Z,100132.52
2022-10-05T05:22:29.235Z,100134.05
2022-10-05T05:25:12.591Z,100127.67
2022-10-05T05:27:48.116Z,100127.88
2022-10-05T05:30:33.803Z,100133.27
2022-10-05T05:33:08.527Z,100133.34
2022-10-05T05:35:45.202Z,100128.84
2022-10-05T05:38:13.785Z,100130.41
2022-10-05T05:40:46.876Z,100128.31
2022-10-05T05:43:24.467Z,100128.84
2022-10-05T05:45:59.093Z,100127.71
2022-10-05T05:48:43.963Z,100124.88
2022-10-05T05:51:21.761Z,100125.61
2022-10-05T05:54:09.183Z,100116.44
2022-10-05T05:56:43.397Z,100113.91
2022-10-05T05:59:14.746Z,100108.89
2022-10-05T06:01:49.135Z,100110.01
2022-10-05T06:04:19.490Z,100108.99
2022-10-05T06:06:50.185Z,100109.05
2022-10-05T06:09:33.967Z,100108.79
2022-10-05T06:12:18.213Z,100116.73
2022-10-05T06:14:52.431Z,100117.15
2022-10-05T06:17:25.006Z,100122.63
2022-10-05T06:19:55.125Z,100121.11
2022-10-05T06:22:30.399Z,100119.82
2022-10-05T06:25:07.754Z,100123.86
2022-10-05T06:27:44.938Z,100127.23
2022-10-05T06:30:15.367Z,100124.86
2022-10-05T06:33:16.410Z,100133.98
2022-10-05T06:36:00.253Z,100135.52
2022-10-05T06:38:48.495Z,100139.41
2022-10-05T06:41:35.203Z,100136.49
2022-10-05T06:44:03.581Z,100142.34
2022-10-05T06:46:55.923Z,100139.27
2022-10-05T06:49:51.725Z,100147.16
2022-10-05T06:52:46.746Z,100153.66
2022-10-05T06:55:21.169Z,100161.86
2022-10-05T06:57:49.238Z,100166.23
2022-10-05T07:00:22.946Z,100169.81
2022-10-05T07:02:57.157Z,100165.52
2022-10-05T07:05:31.987Z,100154.23
2022-10-05T07:08:03.233Z,100152.35
2022-10-05T07:10:33.035Z,100155.16
2022-10-05T07:13:20.469Z,100160.06
2022-10-05T07:15:55.295Z,100165.32
2022-10-05T07:18:42.317Z,100163.95
2022-10-05T07:21:22.675Z,100159.63
2022-10-05T07:24:09.485Z,100162.86
2022-10-05T07:26:46.642Z,100160.12
2022-10-05T07:29:44.232Z,100160.35
2022-10-05T07:32:22.341Z,100152.42
2022-10-05T07:34:59.320Z,100149.91
2022-10-05T07:37:49.611Z,100142.98
2022-10-05T07:40:39.803Z,100134.17
2022-10-05T07:43:14.837Z,100130.25
2022-10-05T07:45:52.693Z,100135.20
2022-10-05T07:48:33.404Z,100135.93
2022-10-05T07:51:20.736Z,100133.17
2022-10-05T07:53:59.158Z,100132.89
2022-10-05T07:56:34.688Z,100136.42
2022-10-05T07:59:18.118Z,100136.14
2022-10-05T08:01:49.529Z,100128.51
2022-10-05T08:04:20.305Z,100124.17
2022-10-05T08:06:50.979Z,100128.42
2022-10-05T08:09:19.076Z,100129.86
2022-10-05T08:11:47.319Z,100133.02
2022-10-05T08:14:16.891Z,100131.11
2022-10-05T08:16:46.889Z,100126.05
2022-10-05T08:19:28.392Z,100124.86
2022-10-05T08:21:59.330Z,100123.30
2022-10-05T08:24:46.039Z,100122.27
2022-10-05T08:27:16.976Z,100131.02
2022-10-05T08:30:02.353Z,100138.89
2022-10-05T08:32:33.298Z,100151.15
2022-10-05T08:35:01.609Z,100147.16
2022-10-05T08:37:32.507Z,100144.02
2022-10-05T08:40:00.372Z,100147.06
2022-10-05T08:42:44.900Z,100148.85
2022-10-05T08:45:31.845Z,100149.92
2022-10-05T08:48:18.859Z,100151.52
2022-10-05T08:50:58.809Z,100164.10
2022-10-05T08:53:52.382Z,100163.42
2022-10-05T08:56:22.201Z,100155.55
2022-10-05T08:59:10.537Z,100143.48
2022-10-05T09:01:40.499Z,100140.52
2022-10-05T09:04:17.742Z,100136.51
2022-10-05T09:06:53.182Z,100136.14
2022-10-05T09:09:21.050Z,100139.27
2022-10-05T09:11:49.219Z,100148.36
2022-10-05T09:14:36.253Z,100155.19
2022-10-05T09:17:09.533Z,100152.73
2022-10-05T09:19:52.939Z,100157.10
2022-10-05T09:22:38.958Z,100159.73
2022-10-05T09:25:10.099Z,100154.48
2022-10-05T09:27:39.162Z,100145.21
2022-10-05T09:30:27.746Z,100139.77
2022-10-05T09:33:11.279Z,100130.48
2022-10-05T09:36:00.854Z,100126.61
2022-10-05T09:38:34.865Z,100126.45
2022-10-05T09:41:35.091Z,100126.42
2022-10-05T09:44:08.896Z,100123.27
2022-10-05T09:46:45.878Z,100122.22
2022-10-05T09:49:16.918Z,100117.83
2022-10-05T09:52:03.830Z,100116.77
2022-10-05T09:54:31.697Z,100123.09
2022-10-05T09:57:17.892Z,100124.15
2022-10-05T10:03:00.003Z,100128.71
2022-10-05T10:05:34.229Z,100123.80
2022-10-05T10:08:14.179Z,100122.92
2022-10-05T10:11:02.334Z,100123.09
2022-10-05T10:13:30.188Z,100119.77
2022-10-05T10:15:58.281Z,100114.16
2022-10-05T10:18:35.341Z,100113.65
2022-10-05T10:21:06.076Z,100111.53
2022-10-05T10:23:49.508Z,100115.20
2022-10-05T10:26:23.415Z,100114.85
2022-10-05T10:28:57.426Z,100112.23
2022-10-05T10:31:31.291Z,100111.50
2022-10-05T10:34:18.245Z,100111.50
2022-10-05T10:37:11.302Z,100109.55
2022-10-05T10:39:58.113Z,100110.39
2022-10-05T10:42:29.052Z,100115.59
2022-10-05T10:44:58.767Z,100120.80
2022-10-05T10:47:44.143Z,100118.64
2022-10-05T10:50:33.307Z,100112.97
2022-10-05T10:53:20.322Z,100106.44
2022-10-05T10:56:12.250Z,100107.60
2022-10-05T10:58:40.220Z,100111.23
2022-10-05T11:01:08.085Z,100110.30
2022-10-05T11:03:54.793Z,100114.98
2022-10-05T11:06:38.228Z,100117.58
2022-10-05T11:09:09.573Z,100113.31
2022-10-05T11:11:37.441Z,100118.87
2022-10-05T11:14:08.176Z,100113.92
2022-10-05T11:16:54.881Z,100112.44
2022-10-05T11:19:39.920Z,100110.08
2022-10-05T11:22:17.537Z,100106.33
2022-10-05T11:24:45.415Z,100104.19
2022-10-05T11:30:02.149Z,100102.76
2022-10-05T11:32:33.077Z,100099.23
2022-10-05T11:35:29.820Z,100095.15
2022-10-05T11:38:10.078Z,100095.95
2022-10-05T11:40:49.719Z,100093.11
2022-10-05T11:43:17.587Z,100092.70
2022-10-05T11:45:45.554Z,100094.41
2022-10-05T11:48:22.331Z,100088.75
2022-10-05T11:50:50.199Z,100089.77
2022-10-05T11:53:24.411Z,100082.20
2022-10-05T11:55:54.084Z,100081.48
2022-10-05T11:58:42.264Z,100082.70
2022-10-05T12:01:18.015Z,100078.47
2022-10-05T12:10:14.319Z,100061.74
2022-10-05T12:13:01.466Z,100059.61
2022-10-05T12:15:42.243Z,100065.92
2022-10-05T12:18:24.165Z,100059.05
2022-10-05T12:20:52.654Z,100056.75
2022-10-05T12:23:30.350Z,100060.77
2022-10-05T12:25:58.217Z,100058.48
2022-10-05T12:28:33.602Z,100057.77
2022-10-05T12:31:15.299Z,100060.91
2022-10-05T12:33:49.566Z,100055.98
2022-10-05T12:36:19.993Z,100057.20
2022-10-05T12:38:54.004Z,100054.00
2022-10-05T12:41:25.044Z,100042.83
2022-10-05T12:43:59.049Z,100042.98
2022-10-05T12:46:35.112Z,100041.38
2022-10-05T12:49:03.012Z,100040.14
2022-10-05T12:51:30.950Z,100039.41
2022-10-05T12:54:13.766Z,100041.15
2022-10-05T12:56:52.897Z,100039.21
2022-10-05T12:59:23.527Z,100034.83
2022-10-05T13:02:09.085Z,100033.44
2022-10-05T13:04:38.832Z,100028.68
2022-10-05T13:07:19.179Z,100024.11
2022-10-05T13:09:50.218Z,100021.82
2022-10-05T13:12:36.415Z,100015.83
2022-10-05T13:15:19.645Z,100008.63
2022-10-05T13:17:58.274Z,100014.05
2022-10-05T13:20:28.892Z,100016.29
2022-10-05T13:22:59.529Z,100018.05
2022-10-05T13:25:31.691Z,100021.37
2022-10-05T13:28:02.471Z,100022.23
2022-10-05T13:30:30.701Z,100011.68
2022-10-05T13:33:04.917Z,100013.61
2022-10-05T13:35:35.547Z,100010.55
2022-10-05T13:38:26.557Z,100013.33
2022-10-05T13:41:00.364Z,100010.13
2022-10-05T13:43:33.702Z,100011.15
2022-10-05T13:46:07.418Z,100014.44
2022-10-05T13:48:54.067Z,100013.54
2022-10-05T13:51:23.879Z,100013.67
2022-10-05T13:54:10.794Z,100019.08
2022-10-05T13:56:42.959Z,100016.04
2022-10-05T13:59:19.224Z,100014.79
2022-10-05T14:01:53.187Z,100011.10
2022-10-05T14:04:24.791Z,100011.29
2022-10-05T14:06:53.063Z,100006.55
2022-10-05T14:09:20.928Z,100005.33
2022-10-05T14:11:54.942Z,100003.96
2022-10-05T14:14:28.437Z,100001.02
2022-10-05T14:16:58.260Z,100000.17
2022-10-05T14:19:28.138Z,99994.20
2022-10-05T14:22:01.767Z,99995.46
2022-10-05T14:24:44.639Z,99994.54
2022-10-05T14:27:19.516Z,99996.31
2022-10-05T14:29:54.549Z,99993.85
2022-10-05T14:32:27.227Z,99994.55
2022-10-05T14:34:55.095Z,99993.14
2022-10-05T14:37:31.501Z,99995.46
2022-10-05T14:40:03.444Z,99997.11
2022-10-05T14:42:46.254Z,99991.89
2022-10-05T14:45:18.101Z,99994.06
2022-10-05T14:48:02.762Z,99988.29
2022-10-05T14:50:31.611Z,99983.27
2022-10-05T14:53:11.910Z,99982.78
2022-10-05T14:55:51.960Z,99979.16
2022-10-05T14:58:28.838Z,99973.79
2022-10-05T15:01:02.083Z,99974.73
2022-10-05T15:03:46.794Z,99971.28
2022-10-05T15:06:37.802Z,99974.88
2022-10-05T15:09:16.978Z,99967.39
2022-10-05T15:11:53.607Z,99967.98
2022-10-05T15:14:21.574Z,99966.27
2022-10-05T15:16:58.825Z,99965.81
2022-10-05T15:19:40.551Z,99967.60
2022-10-05T15:22:11.155Z,99966.88
2022-10-05T15:24:42.748Z,99963.23
2022-10-05T15:27:24.016Z,99966.59
2022-10-05T15:29:57.823Z,99957.67
2022-10-05T15:32:34.803Z,99955.77
2022-10-05T15:35:18.028Z,99953.33
2022-10-05T15:38:09.346Z,99953.70
2022-10-05T15:40:39.874Z,99949.73
2022-10-05T15:43:13.784Z,99950.14
2022-10-05T15:45:53.918Z,99954.77
2022-10-05T15:48:48.735Z,99952.91
2022-10-05T15:51:31.142Z,99955.98
2022-10-05T15:54:23.897Z,99958.14
2022-10-05T15:57:12.240Z,99951.91
2022-10-05T16:00:02.247Z,99946.71
2022-10-05T16:02:44.671Z,99951.52
2022-10-05T16:05:12.906Z,99951.21
2022-10-05T16:08:08.015Z,99947.06
2022-10-05T16:10:41.614Z,99946.90
2022-10-05T16:13:15.316Z,99949.17
2022-10-05T16:15:48.920Z,99946.56
2022-10-05T16:18:18.730Z,99949.05
2022-10-05T16:20:55.742Z,99950.65
2022-10-05T16:23:23.684Z,99946.98
2022-10-05T16:25:59.895Z,99948.24
2022-10-05T16:28:38.536Z,99945.30
2022-10-05T16:31:06.922Z,99941.30
2022-10-05T16:33:54.711Z,99940.83
2022-10-05T16:36:28.376Z,99946.83
2022-10-05T16:39:15.083Z,99946.17
2022-10-05T16:42:03.133Z,99943.77
2022-10-05T16:44:43.073Z,99943.80
2022-10-05T16:47:29.497Z,99949.27
2022-10-05T16:50:05.071Z,99947.72
2022-10-05T16:52:34.201Z,99949.68
2022-10-05T16:55:04.660Z,99945.11
2022-10-05T16:57:36.193Z,99944.24
2022-10-05T17:00:14.889Z,99944.26
2022-10-05T17:02:46.631Z,99948.98
2022-10-05T17:05:42.600Z,99951.78
2022-10-05T17:08:13.435Z,99952.67
2022-10-05T17:10:41.303Z,99949.00
2022-10-05T17:13:28.935Z,99943.95
2022-10-05T17:16:06.156Z,99943.62
2022-10-05T17:18:52.621Z,99938.92
2022-10-05T17:21:34.931Z,99930.02
2022-10-05T17:24:11.805Z,99926.36
2022-10-05T17:26:48.273Z,99924.11
2022-10-05T17:29:34.674Z,99921.34
2022-10-05T17:32:02.641Z,99919.61
2022-10-05T17:34:35.116Z,99926.82
2022-10-05T17:37:32.168Z,99925.63
2022-10-05T17:40:02.514Z,99925.46
2022-10-05T17:42:30.461Z,99925.80
2022-10-05T17:44:59.863Z,99922.11
2022-10-05T17:47:47.603Z,99924.40
2022-10-05T17:50:53.861Z,99917.77
2022-10-05T17:53:46.099Z,99915.48
2022-10-05T17:56:14.069Z,99911.09
2022-10-05T17:58:44.804Z,99913.55
2022-10-05T18:01:27.344Z,99908.83
2022-10-05T18:04:16.890Z,99912.17
2022-10-05T18:06:58.987Z,99909.56
2022-10-05T18:09:27.879Z,99907.66
2022-10-05T18:11:55.746Z,99905.57
2022-10-05T18:14:24.964Z,99909.61
2022-10-05T18:16:56.702Z,99902.46
2022-10-05T18:19:24.977Z,99901.25
2022-10-05T18:22:15.571Z,99901.61
2022-10-05T18:24:43.443Z,99901.27
2022-10-05T18:27:34.861Z,99903.04
2022-10-05T18:30:12.456Z,99900.76
2022-10-05T18:32:52.641Z,99903.41
2022-10-05T18:35:27.340Z,99907.96
2022-10-05T18:38:04.013Z,99911.27
2022-10-05T18:40:38.514Z,99908.29
2022-10-05T18:45:29.967Z,99909.15
2022-10-05T18:47:57.833Z,99909.67
2022-10-05T18:50:38.602Z,99903.89
2022-10-05T18:53:19.370Z,99901.96
2022-10-05T18:55:53.483Z,99899.86
2022-10-05T18:58:26.318Z,99899.70
2022-10-05T19:01:13.614Z,99901.45
2022-10-05T19:03:41.763Z,99903.03
2022-10-05T19:06:14.240Z,99903.20
2022-10-05T19:08:54.801Z,99907.95
2022-10-05T19:13:19.519Z,99916.19
2022-10-05T19:16:03.083Z,99916.87
2022-10-05T19:19:07.978Z,99917.91
2022-10-05T19:21:47.291Z,99918.11
2022-10-05T19:25:01.054Z,99918.81
2022-10-05T19:27:51.800Z,99919.34
2022-10-05T19:30:44.505Z,99913.23
2022-10-05T19:33:40.634Z,99905.55
2022-10-05T19:36:30.109Z,99903.65
2022-10-05T19:39:06.373Z,99903.84
2022-10-05T19:41:55.027Z,99905.63
2022-10-05T19:44:44.599Z,99905.77
2022-10-05T19:47:22.501Z,99912.95
2022-10-05T19:49:53.238Z,99913.31
2022-10-05T19:52:26.121Z,99915.41
2022-10-05T19:55:12.930Z,99921.37
2022-10-05T19:57:53.084Z,99923.64
2022-10-05T20:00:33.240Z,99923.48
2022-10-05T20:03:14.472Z,99928.21
2022-10-05T20:05:42.796Z,99933.48
2022-10-05T20:08:20.009Z,99935.77
2022-10-05T20:11:09.454Z,99936.81
2022-10-05T20:13:40.190Z,99937.84
2022-10-05T20:16:36.085Z,99939.60
2022-10-05T20:19:51.595Z,99942.74
2022-10-05T20:22:33.168Z,99942.05
2022-10-05T20:25:07.603Z,99942.58
2022-10-05T20:27:37.400Z,99949.95
2022-10-05T20:30:06.923Z,99949.24
2022-10-05T20:32:50.791Z,99951.52
2022-10-05T20:35:23.852Z,99951.53
2022-10-05T20:38:12.709Z,99950.85
2022-10-05T20:40:40.780Z,99948.59
2022-10-05T20:43:33.224Z,99948.38
2022-10-05T20:46:01.294Z,99949.96
2022-10-05T20:48:29.623Z,99950.67
2022-10-05T20:50:58.051Z,99953.30
2022-10-05T20:53:26.123Z,99951.72
2022-10-05T20:55:54.195Z,99955.55
2022-10-05T20:58:23.948Z,99956.09
2022-10-05T21:01:11.057Z,99955.75
2022-10-05T21:03:39.195Z,99954.88
2022-10-05T21:06:07.805Z,99953.50
2022-10-05T21:08:37.499Z,99951.41
2022-10-05T21:11:09.247Z,99956.48
2022-10-05T21:13:44.794Z,99955.08
2022-10-05T21:16:18.693Z,99956.30
2022-10-05T21:18:48.926Z,99962.95
2022-10-05T21:21:18.031Z,99962.10
2022-10-05T21:23:47.421Z,99961.22
2022-10-05T21:26:16.292Z,99962.44
2022-10-05T21:28:44.655Z,99965.25
2022-10-05T21:31:12.786Z,99966.65
2022-10-05T21:33:41.242Z,99967.35
2022-10-05T21:36:09.621Z,99969.46
2022-10-05T21:38:37.962Z,99971.92
2022-10-05T21:41:05.969Z,99968.60
2022-10-05T21:43:35.270Z,99967.02
2022-10-05T21:46:03.738Z,99972.45
2022-10-05T21:48:33.972Z,99971.40
2022-10-05T21:51:02.760Z,99972.63
2022-10-05T21:53:34.108Z,99972.11
2022-10-05T21:56:04.637Z,99968.27
2022-10-05T21:58:32.810Z,99964.23
2022-10-05T22:01:00.928Z,99966.36
2022-10-05T22:03:29.880Z,99964.26
2022-10-05T22:05:57.991Z,99959.36
2022-10-05T22:08:29.511Z,99957.96
2022-10-05T22:10:58.239Z,99959.55
2022-10-05T22:13:27.718Z,99956.93
2022-10-05T22:15:56.759Z,99952.74
2022-10-05T22:18:27.133Z,99949.77
2022-10-05T22:20:55.387Z,99947.31
2022-10-05T22:23:23.456Z,99946.09
2022-10-05T22:25:51.530Z,99942.61
2022-10-05T22:28:19.723Z,99947.67
2022-10-05T22:30:47.977Z,99949.24
2022-10-05T22:33:16.052Z,99947.50
2022-10-05T22:35:44.326Z,99954.50
2022-10-05T22:38:12.397Z,99956.61
2022-10-05T22:40:40.569Z,99951.89
2022-10-05T22:43:08.951Z,99955.02
2022-10-05T22:45:37.152Z,99950.50
2022-10-05T22:48:05.912Z,99956.09
2022-10-05T22:50:33.982Z,99955.21
2022-10-05T22:53:02.054Z,99955.04
2022-10-05T22:55:30.227Z,99959.92
2022-10-05T22:57:58.298Z,99962.38
2022-10-05T23:00:40.528Z,99965.01
2022-10-05T23:03:16.255Z,99963.61
2022-10-05T23:05:44.325Z,99961.00
2022-10-05T23:08:12.394Z,99958.55
2022-10-05T23:10:40.466Z,99960.66
2022-10-05T23:13:08.947Z,99960.84
2022-10-05T23:15:37.018Z,99961.86
2022-10-05T23:18:05.091Z,99961.19
2022-10-05T23:20:33.160Z,99964.16
2022-10-05T23:23:01.232Z,99963.63
2022-10-05T23:25:29.308Z,99963.28
2022-10-05T23:27:57.397Z,99962.22
2022-10-05T23:30:25.470Z,99960.49
2022-10-05T23:32:53.621Z,99956.48
2022-10-05T23:35:21.691Z,99957.88
2022-10-05T23:37:49.660Z,99963.65
2022-10-05T23:40:17.937Z,99962.77
2022-10-05T23:42:47.237Z,99966.09
2022-10-05T23:45:15.307Z,99966.98
2022-10-05T23:47:43.379Z,99974.83
2022-10-05T23:50:11.451Z,99975.35
2022-10-05T23:52:39.523Z,99976.05
2022-10-05T23:55:07.926Z,99974.31
2022-10-05T23:57:35.974Z,99980.59
